createdAt,value
2019-05-16T00:00:40.144Z,100024.11
2019-05-16T00:03:04.851Z,100023.18
2019-05-16T00:05:33.079Z,100023.32
2019-05-16T00:08:02.017Z,100022.77
2019-05-16T00:10:29.538Z,100018.66
2019-05-16T00:12:59.419Z,100025.63
2019-05-16T00:15:24.442Z,100024.13
2019-05-16T00:17:51.889Z,100018.05
2019-05-16T00:20:19.331Z,100020.47
2019-05-16T00:22:48.364Z,100015.64
2019-05-16T00:25:14.257Z,100014.00
2019-05-16T00:27:41.701Z,100012.42
2019-05-16T00:30:09.288Z,100012.84
2019-05-16T00:32:38.889Z,100014.54
2019-05-16T00:35:04.152Z,100013.06
2019-05-16T00:37:31.628Z,100014.95
2019-05-16T00:39:59.065Z,100010.84
2019-05-16T00:42:28.478Z,100009.59
2019-05-16T00:44:54.000Z,100005.92
2019-05-16T00:47:22.239Z,100012.78
2019-05-16T00:49:49.678Z,100007.58
2019-05-16T00:52:18.413Z,100004.20
2019-05-16T00:54:44.597Z,99994.19
2019-05-16T00:57:12.019Z,99997.58
2019-05-16T00:59:39.458Z,99988.44
2019-05-16T01:02:09.028Z,99991.64
2019-05-16T01:04:34.369Z,99991.71
2019-05-16T01:07:01.965Z,99984.44
2019-05-16T01:09:30.261Z,99979.41
2019-05-16T01:11:58.001Z,99980.44
2019-05-16T01:14:25.232Z,99980.88
2019-05-16T01:16:52.685Z,99978.57
2019-05-16T01:19:20.107Z,99980.87
2019-05-16T01:21:48.379Z,99971.06
2019-05-16T01:24:15.047Z,99964.94
2019-05-16T01:26:43.367Z,99965.97
2019-05-16T01:29:11.818Z,99958.78
2019-05-16T01:31:38.440Z,99964.82
2019-05-16T01:34:07.814Z,99962.70
2019-05-16T01:36:37.987Z,99964.59
2019-05-16T01:39:02.229Z,99961.14
2019-05-16T01:41:29.659Z,99956.34
2019-05-16T01:43:58.515Z,99947.31
2019-05-16T01:46:24.550Z,99944.98
2019-05-16T01:48:51.977Z,99952.72
2019-05-16T01:51:19.426Z,99941.75
2019-05-16T01:53:48.749Z,99946.89
2019-05-16T01:56:14.335Z,99937.96
2019-05-16T01:58:41.809Z,99938.68
2019-05-16T02:01:15.065Z,99933.81
2019-05-16T02:03:39.332Z,99929.54
2019-05-16T02:06:08.675Z,99926.19
2019-05-16T02:08:34.245Z,99916.70
2019-05-16T02:11:02.089Z,99915.73
2019-05-16T02:13:30.429Z,99922.09
2019-05-16T02:15:59.238Z,99912.89
2019-05-16T02:18:25.462Z,99919.80
2019-05-16T02:20:52.899Z,99915.77
2019-05-16T02:23:20.337Z,99915.54
2019-05-16T02:25:49.064Z,99908.52
2019-05-16T02:28:15.272Z,99910.48
2019-05-16T02:30:42.758Z,99908.27
2019-05-16T02:33:11.613Z,99909.42
2019-05-16T02:35:40.306Z,99910.15
2019-05-16T02:38:05.982Z,99912.27
2019-05-16T02:40:34.277Z,99902.87
2019-05-16T02:43:02.106Z,99907.69
2019-05-16T02:45:32.322Z,99902.47
2019-05-16T02:47:56.787Z,99896.36
2019-05-16T02:50:24.215Z,99894.23
2019-05-16T02:52:52.553Z,99891.68
2019-05-16T02:55:21.712Z,99889.92
2019-05-16T02:57:47.536Z,99882.43
2019-05-16T03:00:14.976Z,99891.64
2019-05-16T03:02:42.463Z,99882.86
2019-05-16T03:05:12.085Z,99880.02
2019-05-16T03:07:41.962Z,99878.33
2019-05-16T03:10:05.487Z,99878.33
2019-05-16T03:12:32.949Z,99873.22
2019-05-16T03:15:02.656Z,99875.41
2019-05-16T03:17:31.751Z,99865.44
2019-05-16T03:19:57.481Z,99862.77
2019-05-16T03:22:24.917Z,99851.80
2019-05-16T03:24:52.358Z,99861.91
2019-05-16T03:27:21.576Z,99864.94
2019-05-16T03:29:50.469Z,99860.72
2019-05-16T03:32:14.801Z,99859.57
2019-05-16T03:34:44.145Z,99858.06
2019-05-16T03:37:14.227Z,99859.86
2019-05-16T03:39:37.203Z,99856.08
2019-05-16T03:42:04.638Z,99856.19
2019-05-16T03:44:32.111Z,99856.00
2019-05-16T03:47:00.984Z,99861.94
2019-05-16T03:49:27.108Z,99861.86
2019-05-16T03:51:54.556Z,99864.95
2019-05-16T03:54:22.002Z,99862.19
2019-05-16T03:56:51.396Z,99858.30
2019-05-16T03:59:16.956Z,99856.96
2019-05-16T04:01:44.380Z,99854.08
2019-05-16T04:04:12.200Z,99858.80
2019-05-16T04:06:41.577Z,99854.84
2019-05-16T04:09:07.759Z,99847.25
2019-05-16T04:11:35.182Z,99849.91
2019-05-16T04:14:02.643Z,99847.03
2019-05-16T04:16:31.332Z,99849.18
2019-05-16T04:18:57.676Z,99850.09
2019-05-16T04:21:25.129Z,99849.80
2019-05-16T04:23:52.581Z,99850.05
2019-05-16T04:26:23.122Z,99845.88
2019-05-16T04:28:51.439Z,99849.69
2019-05-16T04:31:21.719Z,99849.78
2019-05-16T04:33:45.684Z,99849.75
2019-05-16T04:36:13.142Z,99853.56
2019-05-16T04:38:45.966Z,99849.61
2019-05-16T04:41:11.310Z,99853.44
2019-05-16T04:43:35.824Z,99856.98
2019-05-16T04:46:03.270Z,99857.37
2019-05-16T04:48:31.223Z,99854.02
2019-05-16T04:51:01.035Z,99854.92
2019-05-16T04:53:25.674Z,99853.20
2019-05-16T04:55:53.098Z,99850.89
2019-05-16T04:58:23.289Z,99846.39
2019-05-16T05:00:51.266Z,99850.28
2019-05-16T05:03:15.476Z,99853.98
2019-05-16T05:05:42.928Z,99850.16
2019-05-16T05:08:10.902Z,99850.02
2019-05-16T05:10:40.463Z,99843.16
2019-05-16T05:13:05.349Z,99842.24
2019-05-16T05:15:32.790Z,99842.06
2019-05-16T05:18:00.694Z,99837.86
2019-05-16T05:20:30.384Z,99839.08
2019-05-16T05:22:56.693Z,99842.19
2019-05-16T05:25:24.144Z,99842.29
2019-05-16T05:27:51.959Z,99843.38
2019-05-16T05:30:19.916Z,99836.11
2019-05-16T05:32:46.862Z,99830.32
2019-05-16T05:35:14.282Z,99832.55
2019-05-16T05:37:41.758Z,99826.51
2019-05-16T05:40:10.574Z,99833.09
2019-05-16T05:42:37.023Z,99836.55
2019-05-16T05:45:04.463Z,99836.84
2019-05-16T05:47:31.915Z,99840.05
2019-05-16T05:50:00.674Z,99838.31
2019-05-16T05:52:26.906Z,99840.98
2019-05-16T05:54:54.365Z,99833.21
2019-05-16T05:57:21.801Z,99831.16
2019-05-16T05:59:49.811Z,99836.27
2019-05-16T06:02:16.779Z,99833.72
2019-05-16T06:04:44.257Z,99829.19
2019-05-16T06:07:11.682Z,99835.42
2019-05-16T06:09:52.440Z,99831.02
2019-05-16T06:12:10.325Z,99835.81
2019-05-16T06:14:35.077Z,99833.61
2019-05-16T06:17:02.523Z,99833.51
2019-05-16T06:19:29.973Z,99834.45
2019-05-16T06:21:57.403Z,99837.30
2019-05-16T06:24:24.851Z,99828.72
2019-05-16T06:26:52.271Z,99824.13
2019-05-16T06:29:20.356Z,99829.08
2019-05-16T06:31:49.518Z,99824.73
2019-05-16T06:34:15.395Z,99817.47
2019-05-16T06:36:42.060Z,99820.77
2019-05-16T06:39:11.390Z,99818.08
2019-05-16T06:41:37.004Z,99820.23
2019-05-16T06:44:04.442Z,99820.13
2019-05-16T06:46:39.357Z,99815.09
2019-05-16T06:48:59.642Z,99818.11
2019-05-16T06:51:26.781Z,99812.54
2019-05-16T06:53:54.211Z,99812.14
2019-05-16T06:56:21.657Z,99806.89
2019-05-16T06:58:51.733Z,99806.45
2019-05-16T07:01:16.582Z,99811.17
2019-05-16T07:03:44.021Z,99813.51
2019-05-16T07:06:29.876Z,99809.77
2019-05-16T07:08:40.300Z,99806.31
2019-05-16T07:11:06.354Z,99799.62
2019-05-16T07:13:33.801Z,99796.45
2019-05-16T07:16:01.227Z,99799.73
2019-05-16T07:18:30.739Z,99793.18
2019-05-16T07:20:56.162Z,99793.64
2019-05-16T07:23:23.597Z,99790.94
2019-05-16T07:25:51.064Z,99778.63
2019-05-16T07:28:20.825Z,99774.74
2019-05-16T07:30:46.157Z,99769.73
2019-05-16T07:33:13.610Z,99768.69
2019-05-16T07:35:41.750Z,99764.98
2019-05-16T07:38:10.712Z,99763.72
2019-05-16T07:40:36.658Z,99764.19
2019-05-16T07:43:04.102Z,99757.16
2019-05-16T07:45:32.548Z,99755.54
2019-05-16T07:48:00.159Z,99754.98
2019-05-16T07:50:29.903Z,99757.64
2019-05-16T07:52:54.966Z,99760.97
2019-05-16T07:55:22.411Z,99759.92
2019-05-16T07:57:50.638Z,99753.05
2019-05-16T08:00:17.343Z,99754.14
2019-05-16T08:02:44.771Z,99752.25
2019-05-16T08:05:12.424Z,99750.84
2019-05-16T08:07:40.694Z,99760.70
2019-05-16T08:10:07.322Z,99753.51
2019-05-16T08:12:34.778Z,99742.02
2019-05-16T08:15:02.250Z,99747.27
2019-05-16T08:17:31.447Z,99739.91
2019-05-16T08:19:59.878Z,99725.84
2019-05-16T08:22:25.225Z,99724.73
2019-05-16T08:24:52.665Z,99727.45
2019-05-16T08:27:20.759Z,99718.31
2019-05-16T08:29:47.585Z,99713.94
2019-05-16T08:32:16.212Z,99718.44
2019-05-16T08:34:43.631Z,99712.19
2019-05-16T08:37:32.855Z,99715.69
2019-05-16T08:39:41.159Z,99712.18
2019-05-16T08:42:08.484Z,99710.52
2019-05-16T08:44:34.524Z,99707.84
2019-05-16T08:47:06.024Z,99706.05
2019-05-16T08:49:30.630Z,99708.16
2019-05-16T08:51:57.014Z,99706.00
2019-05-16T08:54:24.479Z,99706.00
2019-05-16T08:56:51.984Z,99705.95
2019-05-16T08:59:21.378Z,99708.69
2019-05-16T09:01:53.393Z,99704.91
2019-05-16T09:04:14.394Z,99706.38
2019-05-16T09:06:42.645Z,99699.60
2019-05-16T09:09:27.043Z,99704.81
2019-05-16T09:11:44.616Z,99704.31
2019-05-16T09:14:04.320Z,99703.22
2019-05-16T09:16:31.778Z,99699.58
2019-05-16T09:18:59.634Z,99696.56
2019-05-16T09:21:27.627Z,99698.38
2019-05-16T09:23:54.734Z,99692.46
2019-05-16T09:26:22.213Z,99689.66
2019-05-16T09:28:49.673Z,99678.76
2019-05-16T09:31:23.942Z,99673.55
2019-05-16T09:33:47.222Z,99685.66
2019-05-16T09:36:12.062Z,99689.23
2019-05-16T09:38:39.555Z,99676.48
2019-05-16T09:41:07.854Z,99677.86
2019-05-16T09:43:34.452Z,99684.12
2019-05-16T09:46:04.077Z,99679.59
2019-05-16T09:48:29.423Z,99685.51
2019-05-16T09:50:57.634Z,99679.19
2019-05-16T09:53:27.378Z,99680.25
2019-05-16T09:55:52.827Z,99675.73
2019-05-16T09:58:20.255Z,99675.70
2019-05-16T10:00:47.789Z,99674.04
2019-05-16T10:03:17.578Z,99670.42
2019-05-16T10:05:42.669Z,99664.27
2019-05-16T10:08:10.129Z,99663.56
2019-05-16T10:10:37.547Z,99662.62
2019-05-16T10:13:06.787Z,99654.73
2019-05-16T10:15:32.487Z,99659.58
2019-05-16T10:17:59.964Z,99654.05
2019-05-16T10:20:27.549Z,99654.82
2019-05-16T10:22:57.702Z,99640.97
2019-05-16T10:25:22.318Z,99635.00
2019-05-16T10:27:49.780Z,99639.94
2019-05-16T10:30:17.696Z,99630.86
2019-05-16T10:32:47.878Z,99636.55
2019-05-16T10:35:13.099Z,99639.31
2019-05-16T10:37:40.523Z,99634.30
2019-05-16T10:40:07.995Z,99628.75
2019-05-16T10:42:38.010Z,99626.00
2019-05-16T10:45:02.946Z,99621.16
2019-05-16T10:47:31.423Z,99619.83
2019-05-16T10:49:57.837Z,99612.30
2019-05-16T10:52:26.896Z,99606.61
2019-05-16T10:54:58.447Z,99602.80
2019-05-16T10:57:20.338Z,99599.09
2019-05-16T11:00:06.548Z,99600.77
2019-05-16T11:02:16.686Z,99595.07
2019-05-16T11:04:57.394Z,99588.86
2019-05-16T11:07:11.128Z,99584.86
2019-05-16T11:09:39.593Z,99582.87
2019-05-16T11:12:07.094Z,99581.68
2019-05-16T11:14:36.899Z,99577.02
2019-05-16T11:17:02.025Z,99587.94
2019-05-16T11:19:29.469Z,99583.92
2019-05-16T11:21:57.840Z,99575.98
2019-05-16T11:24:29.000Z,99581.73
2019-05-16T11:26:52.880Z,99577.21
2019-05-16T11:29:20.284Z,99574.48
2019-05-16T11:31:47.727Z,99586.83
2019-05-16T11:34:17.185Z,99576.83
2019-05-16T11:36:42.639Z,99586.41
2019-05-16T11:39:10.111Z,99575.76
2019-05-16T11:41:37.546Z,99580.71
2019-05-16T11:44:06.656Z,99580.20
2019-05-16T11:46:32.498Z,99570.66
2019-05-16T11:48:59.957Z,99565.36
2019-05-16T11:51:27.454Z,99564.45
2019-05-16T11:53:59.728Z,99552.16
2019-05-16T11:56:22.409Z,99564.50
2019-05-16T11:58:49.864Z,99576.41
2019-05-16T12:01:17.323Z,99564.28
2019-05-16T12:03:46.812Z,99562.17
2019-05-16T12:06:12.269Z,99560.48
2019-05-16T12:08:40.677Z,99551.20
2019-05-16T12:11:08.243Z,99552.41
2019-05-16T12:13:36.844Z,99552.36
2019-05-16T12:16:03.213Z,99548.34
2019-05-16T12:18:30.635Z,99549.11
2019-05-16T12:20:58.076Z,99546.22
2019-05-16T12:23:27.537Z,99541.75
2019-05-16T12:25:53.016Z,99540.23
2019-05-16T12:28:20.473Z,99531.55
2019-05-16T12:30:47.946Z,99525.78
2019-05-16T12:33:18.365Z,99526.42
2019-05-16T12:35:42.906Z,99525.77
2019-05-16T12:38:10.347Z,99524.53
2019-05-16T12:40:37.831Z,99525.30
2019-05-16T12:43:07.725Z,99517.11
2019-05-16T12:45:32.710Z,99524.82
2019-05-16T12:48:00.147Z,99522.12
2019-05-16T12:50:28.725Z,99510.81
2019-05-16T12:55:16.649Z,99519.66
2019-05-16T12:57:43.732Z,99510.95
2019-05-16T13:00:15.111Z,99511.51
2019-05-16T13:02:38.623Z,99517.86
2019-05-16T13:05:06.065Z,99513.68
2019-05-16T13:07:37.705Z,99507.59
2019-05-16T13:10:07.217Z,99503.89
2019-05-16T13:12:37.686Z,99501.95
2019-05-16T13:15:07.204Z,99498.33
2019-05-16T13:17:37.242Z,99496.47
2019-05-16T13:20:02.148Z,99485.99
2019-05-16T13:22:29.595Z,99482.84
2019-05-16T13:24:57.585Z,99485.56
2019-05-16T13:27:24.522Z,99484.39
2019-05-16T13:29:51.981Z,99479.31
2019-05-16T13:32:19.407Z,99483.41
2019-05-16T13:34:46.852Z,99473.19
2019-05-16T13:37:17.983Z,99472.75
2019-05-16T13:39:42.966Z,99472.06
2019-05-16T13:42:10.394Z,99462.70
2019-05-16T13:44:37.895Z,99455.50
2019-05-16T13:47:07.484Z,99455.11
2019-05-16T13:49:32.815Z,99443.44
2019-05-16T13:52:00.252Z,99440.59
2019-05-16T13:54:27.686Z,99443.19
2019-05-16T13:56:57.240Z,99432.87
2019-05-16T13:59:23.660Z,99438.08
2019-05-16T14:01:51.260Z,99433.35
2019-05-16T14:04:19.603Z,99427.50
2019-05-16T14:06:47.734Z,99430.47
2019-05-16T14:09:14.559Z,99426.67
2019-05-16T14:11:42.036Z,99429.22
2019-05-16T14:14:09.493Z,99429.42
2019-05-16T14:16:37.718Z,99425.00
2019-05-16T14:19:04.415Z,99421.07
2019-05-16T14:21:31.869Z,99425.12
2019-05-16T14:23:59.316Z,99410.52
2019-05-16T14:26:26.762Z,99414.77
2019-05-16T14:28:57.327Z,99411.03
2019-05-16T14:31:21.649Z,99410.69
2019-05-16T14:33:49.113Z,99403.09
2019-05-16T14:36:16.578Z,99399.09
2019-05-16T14:38:46.619Z,99389.99
2019-05-16T14:41:11.503Z,99390.00
2019-05-16T14:43:38.977Z,99390.47
2019-05-16T14:46:09.459Z,99386.84
2019-05-16T14:48:36.774Z,99386.38
2019-05-16T14:51:01.376Z,99381.50
2019-05-16T14:53:28.845Z,99377.43
2019-05-16T14:55:57.685Z,99368.55
2019-05-16T14:58:23.797Z,99374.05
2019-05-16T15:00:51.280Z,99369.81
2019-05-16T15:03:18.750Z,99362.70
2019-05-16T15:05:48.063Z,99359.38
2019-05-16T15:08:13.664Z,99351.05
2019-05-16T15:10:41.312Z,99343.20
2019-05-16T15:13:08.756Z,99347.69
2019-05-16T15:15:37.802Z,99342.77
2019-05-16T15:18:03.649Z,99338.59
2019-05-16T15:20:31.080Z,99332.72
2019-05-16T15:22:58.548Z,99332.80
2019-05-16T15:25:26.611Z,99336.17
2019-05-16T15:27:53.476Z,99331.17
2019-05-16T15:30:21.353Z,99331.86
2019-05-16T15:32:48.812Z,99335.57
2019-05-16T15:35:18.033Z,99323.49
2019-05-16T15:37:43.765Z,99328.50
2019-05-16T15:40:11.191Z,99316.75
2019-05-16T15:42:38.685Z,99314.29
2019-05-16T15:45:07.126Z,99318.69
2019-05-16T15:47:37.174Z,99310.13
2019-05-16T15:50:01.917Z,99308.73
2019-05-16T15:52:29.352Z,99308.61
2019-05-16T15:54:56.789Z,99303.01
2019-05-16T15:57:26.790Z,99299.17
2019-05-16T15:59:52.290Z,99296.34
2019-05-16T16:02:19.744Z,99292.25
2019-05-16T16:04:47.796Z,99291.73
2019-05-16T16:07:14.619Z,99285.17
2019-05-16T16:09:43.127Z,99283.80
2019-05-16T16:12:11.021Z,99282.21
2019-05-16T16:14:38.149Z,99282.38
2019-05-16T16:17:06.652Z,99277.55
2019-05-16T16:19:33.054Z,99284.16
2019-05-16T16:22:00.505Z,99285.94
2019-05-16T16:24:28.132Z,99281.28
2019-05-16T16:26:56.547Z,99271.16
2019-05-16T16:29:22.897Z,99265.29
2019-05-16T16:31:50.307Z,99270.08
2019-05-16T16:34:17.839Z,99264.58
2019-05-16T16:36:47.390Z,99261.35
2019-05-16T16:39:12.703Z,99251.70
2019-05-16T16:41:40.141Z,99253.16
2019-05-16T16:44:07.816Z,99258.55
2019-05-16T16:46:37.450Z,99261.09
2019-05-16T16:49:02.513Z,99260.70
2019-05-16T16:51:29.980Z,99253.98
2019-05-16T16:53:57.429Z,99248.52
2019-05-16T16:56:27.274Z,99246.20
2019-05-16T16:58:52.352Z,99247.05
2019-05-16T17:01:19.796Z,99248.39
2019-05-16T17:03:47.261Z,99240.83
2019-05-16T17:06:17.486Z,99232.34
2019-05-16T17:08:42.199Z,99232.94
2019-05-16T17:11:09.667Z,99229.40
2019-05-16T17:13:37.133Z,99233.58
2019-05-16T17:16:18.037Z,99228.94
2019-05-16T17:18:32.080Z,99229.02
2019-05-16T17:20:59.515Z,99219.63
2019-05-16T17:23:26.952Z,99223.25
2019-05-16T17:25:56.432Z,99221.75
2019-05-16T17:28:21.856Z,99215.42
2019-05-16T17:30:49.293Z,99213.28
2019-05-16T17:33:18.342Z,99208.97
2019-05-16T17:35:48.296Z,99205.74
2019-05-16T17:38:11.632Z,99206.30
2019-05-16T17:40:39.101Z,99202.52
2019-05-16T17:43:07.314Z,99198.04
2019-05-16T17:45:34.022Z,99194.67
2019-05-16T17:48:01.463Z,99195.84
2019-05-16T17:50:28.902Z,99201.86
2019-05-16T17:52:57.807Z,99204.61
2019-05-16T17:55:26.877Z,99204.52
2019-05-16T17:57:52.518Z,99208.19
2019-05-16T18:00:25.348Z,99204.44
2019-05-16T18:02:48.820Z,99207.37
2019-05-16T18:05:17.052Z,99208.56
2019-05-16T18:07:43.953Z,99211.66
2019-05-16T18:10:11.658Z,99204.22
2019-05-16T18:12:39.535Z,99199.31
2019-05-16T18:15:08.817Z,99192.56
2019-05-16T18:17:36.467Z,99192.52
2019-05-16T18:20:06.881Z,99190.75
2019-05-16T18:22:36.196Z,99185.84
2019-05-16T18:25:01.830Z,99182.45
2019-05-16T18:27:29.378Z,99182.19
2019-05-16T18:29:56.815Z,99175.39
2019-05-16T18:32:26.600Z,99172.42
2019-05-16T18:34:52.696Z,99169.92
2019-05-16T18:37:20.123Z,99168.19
2019-05-16T18:39:47.581Z,99167.50
2019-05-16T18:42:16.812Z,99171.77
2019-05-16T18:44:42.614Z,99165.27
2019-05-16T18:47:11.561Z,99169.95
2019-05-16T18:49:37.538Z,99173.13
2019-05-16T18:52:06.555Z,99164.65
2019-05-16T18:54:32.442Z,99169.77
2019-05-16T18:56:59.879Z,99160.30
2019-05-16T18:59:27.296Z,99158.91
2019-05-16T19:01:55.751Z,99155.53
2019-05-16T19:04:23.723Z,99160.33
2019-05-16T19:06:51.158Z,99155.47
2019-05-16T19:09:18.594Z,99155.60
2019-05-16T19:11:46.072Z,99154.91
2019-05-16T19:14:13.679Z,99151.61
2019-05-16T19:16:41.314Z,99149.80
2019-05-16T19:19:08.773Z,99152.22
2019-05-16T19:21:36.864Z,99150.16
2019-05-16T19:24:03.741Z,99149.05
2019-05-16T19:26:31.271Z,99148.37
2019-05-16T19:28:58.748Z,99151.52
2019-05-16T19:31:26.290Z,99151.16
2019-05-16T19:33:56.373Z,99146.88
2019-05-16T19:36:21.210Z,99146.34
2019-05-16T19:38:48.649Z,99150.84
2019-05-16T19:41:16.129Z,99147.39
2019-05-16T19:43:43.588Z,99155.13
2019-05-16T19:46:11.039Z,99156.23
2019-05-16T19:48:38.506Z,99157.07
2019-05-16T19:51:07.476Z,99151.60
2019-05-16T19:53:33.693Z,99152.09
2019-05-16T19:56:01.146Z,99147.63
2019-05-16T19:58:31.041Z,99150.29
2019-05-16T20:00:57.146Z,99147.19
2019-05-16T20:03:23.829Z,99146.22
2019-05-16T20:05:51.366Z,99145.66
2019-05-16T20:08:19.643Z,99143.36
2019-05-16T20:10:47.665Z,99144.61
2019-05-16T20:13:16.510Z,99150.27
2019-05-16T20:15:42.016Z,99140.76
2019-05-16T20:18:09.502Z,99143.42
2019-05-16T20:20:38.306Z,99131.71
2019-05-16T20:23:05.752Z,99135.38
2019-05-16T20:25:33.158Z,99137.80
2019-05-16T20:28:00.642Z,99130.17
2019-05-16T20:30:28.098Z,99129.95
2019-05-16T20:32:55.537Z,99129.70
2019-05-16T20:35:23.008Z,99124.56
2019-05-16T20:37:50.501Z,99126.88
2019-05-16T20:40:17.961Z,99122.96
2019-05-16T20:42:47.483Z,99121.27
2019-05-16T20:45:13.110Z,99120.91
2019-05-16T20:47:40.553Z,99114.95
2019-05-16T20:50:07.994Z,99116.50
2019-05-16T20:52:37.681Z,99114.95
2019-05-16T20:55:02.875Z,99113.92
2019-05-16T20:57:30.291Z,99107.05
2019-05-16T20:59:58.622Z,99106.97
2019-05-16T21:02:27.020Z,99103.27
2019-05-16T21:04:53.555Z,99106.47
2019-05-16T21:07:21.030Z,99104.31
2019-05-16T21:09:48.447Z,99109.43
2019-05-16T21:12:17.247Z,99105.36
2019-05-16T21:14:43.413Z,99106.83
2019-05-16T21:17:11.081Z,99101.37
2019-05-16T21:19:39.239Z,99102.14
2019-05-16T21:22:07.293Z,99100.16
2019-05-16T21:24:33.449Z,99099.69
2019-05-16T21:27:00.879Z,99092.17
2019-05-16T21:29:29.461Z,99091.70
2019-05-16T21:31:56.901Z,99086.98
2019-05-16T21:34:24.338Z,99090.12
2019-05-16T21:36:51.971Z,99084.17
2019-05-16T21:39:19.396Z,99087.47
2019-05-16T21:41:47.864Z,99085.28
2019-05-16T21:44:17.123Z,99079.47
2019-05-16T21:46:42.763Z,99084.80
2019-05-16T21:49:10.211Z,99086.83
2019-05-16T21:51:37.838Z,99077.50
2019-05-16T21:54:07.150Z,99078.48
2019-05-16T21:56:33.894Z,99072.07
2019-05-16T21:59:01.379Z,99067.48
2019-05-16T22:01:29.939Z,99068.63
2019-05-16T22:03:57.381Z,99070.84
2019-05-16T22:06:25.367Z,99067.83
2019-05-16T22:08:53.021Z,99066.73
2019-05-16T22:11:20.463Z,99063.24
2019-05-16T22:13:47.906Z,99068.43
2019-05-16T22:16:17.645Z,99069.42
2019-05-16T22:18:42.830Z,99060.23
2019-05-16T22:21:10.274Z,99064.28
2019-05-16T22:23:37.734Z,99060.09
2019-05-16T22:26:07.597Z,99053.01
2019-05-16T22:28:32.619Z,99048.19
2019-05-16T22:31:00.470Z,99049.44
2019-05-16T22:33:27.927Z,99049.52
2019-05-16T22:35:57.695Z,99047.63
2019-05-16T22:38:22.810Z,99047.89
2019-05-16T22:40:52.836Z,99041.31
2019-05-16T22:43:20.335Z,99041.45
2019-05-16T22:45:47.784Z,99033.41
2019-05-16T22:48:17.241Z,99031.38
2019-05-16T22:50:42.726Z,99026.11
2019-05-16T22:53:11.179Z,99023.92
2019-05-16T22:55:38.647Z,99020.66
2019-05-16T22:58:07.243Z,99017.70
2019-05-16T23:00:33.572Z,99019.80
2019-05-16T23:03:01.063Z,99020.30
2019-05-16T23:05:28.496Z,99015.62
2019-05-16T23:08:05.016Z,99018.23
2019-05-16T23:10:25.034Z,99013.22
2019-05-16T23:12:51.596Z,99014.41
2019-05-16T23:15:19.123Z,99014.27
2019-05-16T23:17:46.701Z,99012.95
2019-05-16T23:20:14.020Z,99008.83
2019-05-16T23:22:41.452Z,99004.75
2019-05-16T23:25:08.917Z,99006.08
2019-05-16T23:27:36.981Z,99003.37
2019-05-16T23:30:04.614Z,99000.83
2019-05-16T23:32:32.441Z,98991.73
2019-05-16T23:34:59.877Z,98990.95
2019-05-16T23:37:27.504Z,98985.55
2019-05-16T23:39:56.789Z,98994.26
2019-05-16T23:42:22.266Z,98984.12
2019-05-16T23:44:49.745Z,98982.57
2019-05-16T23:47:17.163Z,98975.35
2019-05-16T23:49:47.143Z,98974.88
2019-05-16T23:52:12.075Z,98970.16
2019-05-16T23:54:39.546Z,98965.77
2019-05-16T23:57:06.967Z,98969.42
2019-05-16T23:59:36.702Z,98975.03
